createdAt,value
2022-11-05T00:02:28.959Z,97451.66
2022-11-05T00:06:49.703Z,97453.56
2022-11-05T00:10:51.840Z,97455.69
2022-11-05T00:15:12.346Z,97448.59
2022-11-05T00:19:15.404Z,97446.72
2022-11-05T00:23:36.216Z,97444.06
2022-11-05T00:27:38.294Z,97443.69
2022-11-05T00:31:40.428Z,97437.34
2022-11-05T00:35:43.083Z,97435.47
2022-11-05T00:39:45.057Z,97448.91
2022-11-05T00:44:06.152Z,97447.84
2022-11-05T00:48:27.155Z,97450.28
2022-11-05T00:52:47.902Z,97460.59
2022-11-05T00:56:50.101Z,97454.94
2022-11-05T01:00:57.733Z,97444.25
2022-11-05T01:04:59.679Z,97428.13
2022-11-05T01:09:02.372Z,97430.00
2022-11-05T01:13:08.772Z,97432.47
2022-11-05T01:17:14.343Z,97443.09
2022-11-05T01:21:17.066Z,97433.63
2022-11-05T01:25:19.950Z,97436.56
2022-11-05T01:29:22.154Z,97439.22
2022-11-05T01:33:24.744Z,97453.50
2022-11-05T01:37:26.720Z,97445.47
2022-11-05T01:41:28.700Z,97441.75
2022-11-05T01:45:30.899Z,97438.09
2022-11-05T01:49:34.664Z,97448.53
2022-11-05T01:53:40.949Z,97449.63
2022-11-05T01:57:43.221Z,97447.19
2022-11-05T02:01:45.650Z,97450.19
2022-11-05T02:05:50.095Z,97453.72
2022-11-05T02:10:11.360Z,97447.31
2022-11-05T02:14:13.275Z,97450.28
2022-11-05T02:18:51.646Z,97443.38
2022-11-05T02:23:23.057Z,97418.13
2022-11-05T02:27:58.990Z,97408.06
2022-11-05T02:32:35.543Z,97415.41
2022-11-05T02:37:01.186Z,97411.47
2022-11-05T02:41:32.952Z,97395.19
2022-11-05T02:45:48.743Z,97391.78
2022-11-05T02:50:14.520Z,97418.84
2022-11-05T02:54:31.982Z,97419.59
2022-11-05T02:58:35.697Z,97423.13
2022-11-05T03:02:38.151Z,97420.16
2022-11-05T03:06:48.690Z,97419.84
2022-11-05T03:11:13.302Z,97418.25
2022-11-05T03:15:33.853Z,97428.56
2022-11-05T03:19:50.193Z,97421.38
2022-11-05T03:23:59.159Z,97442.63
2022-11-05T03:28:06.783Z,97465.91
2022-11-05T03:32:11.445Z,97462.69
2022-11-05T03:36:23.480Z,97469.81
2022-11-05T03:40:26.532Z,97478.00
2022-11-05T03:44:33.136Z,97467.91
2022-11-05T03:48:41.519Z,97485.72
2022-11-05T03:52:54.891Z,97495.72
2022-11-05T03:56:56.825Z,97486.03
2022-11-05T04:01:02.295Z,97495.78
2022-11-05T04:05:05.408Z,97487.56
2022-11-05T04:09:26.269Z,97500.06
2022-11-05T04:13:28.609Z,97515.69
2022-11-05T04:17:30.572Z,97522.63
2022-11-05T04:21:51.041Z,97509.25
2022-11-05T04:25:53.064Z,97512.66
2022-11-05T04:30:13.715Z,97492.44
2022-11-05T04:34:16.644Z,97481.91
2022-11-05T04:38:20.276Z,97487.00
2022-11-05T04:42:22.572Z,97494.75
2022-11-05T04:46:25.053Z,97507.38
2022-11-05T04:50:27.112Z,97509.25
2022-11-05T04:54:29.149Z,97514.34
2022-11-05T04:58:31.071Z,97520.38
2022-11-05T05:02:33.958Z,97510.97
2022-11-05T05:06:36.461Z,97509.38
2022-11-05T05:10:38.439Z,97501.69
2022-11-05T05:14:40.453Z,97502.00
2022-11-05T05:18:46.209Z,97513.91
2022-11-05T05:22:55.205Z,97510.63
2022-11-05T05:26:57.294Z,97514.56
2022-11-05T05:31:00.791Z,97517.94
2022-11-05T05:35:03.465Z,97519.72
2022-11-05T05:39:07.402Z,97536.72
2022-11-05T05:43:09.678Z,97544.44
2022-11-05T05:47:11.889Z,97549.19
2022-11-05T05:51:13.887Z,97561.91
2022-11-05T05:55:16.270Z,97570.03
2022-11-05T05:59:18.226Z,97579.03
2022-11-05T06:03:20.828Z,97588.53
2022-11-05T06:07:23.154Z,97604.94
2022-11-05T06:11:25.349Z,97618.47
2022-11-05T06:20:11.950Z,97637.97
2022-11-05T06:24:13.942Z,97638.81
2022-11-05T06:28:15.967Z,97639.34
2022-11-05T06:32:17.893Z,97626.00
2022-11-05T06:36:20.800Z,97639.53
2022-11-05T06:40:22.833Z,97609.09
2022-11-05T06:44:24.769Z,97617.28
2022-11-05T06:48:26.756Z,97619.47
2022-11-05T06:52:31.277Z,97625.59
2022-11-05T06:56:33.235Z,97636.16
2022-11-05T07:00:35.300Z,97646.94
2022-11-05T07:04:37.539Z,97642.13
2022-11-05T07:08:39.626Z,97643.50
2022-11-05T07:12:41.915Z,97658.31
2022-11-05T07:16:44.101Z,97656.66
2022-11-05T07:20:46.101Z,97673.59
2022-11-05T07:24:49.494Z,97680.09
2022-11-05T07:28:51.461Z,97689.16
2022-11-05T07:32:53.700Z,97699.69
2022-11-05T07:36:57.579Z,97711.66
2022-11-05T07:41:01.833Z,97707.59
2022-11-05T07:45:06.192Z,97722.38
2022-11-05T07:49:08.390Z,97735.13
2022-11-05T07:53:13.505Z,97734.72
2022-11-05T07:57:16.336Z,97741.81
2022-11-05T08:01:18.556Z,97743.31
2022-11-05T08:05:20.813Z,97743.53
2022-11-05T08:09:22.949Z,97746.78
2022-11-05T08:13:25.235Z,97753.31
2022-11-05T08:17:27.314Z,97757.56
2022-11-05T08:21:29.264Z,97762.81
2022-11-05T08:25:32.031Z,97757.88
2022-11-05T08:29:34.009Z,97749.53
2022-11-05T08:33:35.977Z,97753.78
2022-11-05T08:37:37.968Z,97746.84
2022-11-05T08:41:40.682Z,97750.50
2022-11-05T08:45:42.970Z,97747.28
2022-11-05T08:49:45.016Z,97751.25
2022-11-05T08:53:47.040Z,97756.44
2022-11-05T08:57:54.678Z,97767.75
2022-11-05T09:01:56.862Z,97763.44
2022-11-05T09:05:59.363Z,97759.72
2022-11-05T09:10:02.053Z,97770.66
2022-11-05T09:14:04.633Z,97789.19
2022-11-05T09:18:07.089Z,97775.84
2022-11-05T09:22:12.669Z,97784.31
2022-11-05T09:26:15.025Z,97787.78
2022-11-05T09:30:17.047Z,97782.50
2022-11-05T09:34:19.055Z,97785.53
2022-11-05T09:38:21.106Z,97787.84
2022-11-05T09:42:28.846Z,97787.94
2022-11-05T09:46:43.836Z,97789.44
2022-11-05T09:50:47.623Z,97787.50
2022-11-05T09:54:50.502Z,97792.34
2022-11-05T09:58:58.284Z,97794.44
2022-11-05T10:03:06.327Z,97795.97
2022-11-05T10:07:15.925Z,97811.94
2022-11-05T10:11:25.171Z,97816.16
2022-11-05T10:15:37.389Z,97816.75
2022-11-05T10:19:54.688Z,97829.19
2022-11-05T10:23:57.314Z,97826.44
2022-11-05T10:28:00.374Z,97834.88
2022-11-05T10:32:05.868Z,97829.38
2022-11-05T10:36:34.979Z,97832.81
2022-11-05T10:41:01.703Z,97847.31
2022-11-05T10:45:12.657Z,97859.22
2022-11-05T10:49:36.294Z,97858.38
2022-11-05T10:53:39.713Z,97862.00
2022-11-05T10:57:42.380Z,97860.00
2022-11-05T11:01:44.665Z,97858.50
2022-11-05T11:05:46.857Z,97869.84
2022-11-05T11:09:50.142Z,97846.47
2022-11-05T11:13:59.595Z,97854.47
2022-11-05T11:18:33.526Z,97857.31
2022-11-05T11:22:36.856Z,97860.16
2022-11-05T11:26:40.629Z,97864.75
2022-11-05T11:30:51.886Z,97837.19
2022-11-05T11:34:55.295Z,97852.25
2022-11-05T11:39:02.437Z,97872.28
2022-11-05T11:43:14.489Z,97879.41
2022-11-05T11:47:19.792Z,97884.72
2022-11-05T11:51:32.614Z,97881.47
2022-11-05T11:55:34.588Z,97887.78
2022-11-05T12:00:06.703Z,97897.25
2022-11-05T12:04:19.762Z,97898.84
2022-11-05T12:08:35.674Z,97901.56
2022-11-05T12:13:02.763Z,97905.59
2022-11-05T12:17:25.955Z,97898.53
2022-11-05T12:21:56.169Z,97891.59
2022-11-05T12:26:33.096Z,97904.44
2022-11-05T12:31:07.451Z,97894.47
2022-11-05T12:35:48.235Z,97910.91
2022-11-05T12:40:08.496Z,97913.41
2022-11-05T12:44:24.147Z,97918.53
2022-11-05T12:49:04.678Z,97926.16
2022-11-05T12:53:47.171Z,97914.34
2022-11-05T12:57:55.266Z,97915.72
2022-11-05T13:02:38.675Z,97916.03
2022-11-05T13:06:47.052Z,97932.75
2022-11-05T13:10:55.706Z,97927.16
2022-11-05T13:15:13.934Z,97960.72
2022-11-05T13:19:16.482Z,97940.03
2022-11-05T13:23:21.737Z,97947.47
2022-11-05T13:27:38.063Z,97957.84
2022-11-05T13:31:52.539Z,97952.47
2022-11-05T13:36:28.884Z,97959.66
2022-11-05T13:40:46.579Z,97961.84
2022-11-05T13:44:57.950Z,97961.22
2022-11-05T13:49:21.286Z,97961.72
2022-11-05T13:53:35.857Z,97969.44
2022-11-05T13:57:37.692Z,97981.50
2022-11-05T14:02:01.519Z,97954.13
2022-11-05T14:06:07.009Z,97961.63
2022-11-05T14:10:46.955Z,97958.66
2022-11-05T14:14:59.115Z,97954.47
2022-11-05T14:19:19.749Z,97970.72
2022-11-05T14:23:24.487Z,97958.31
2022-11-05T14:27:29.427Z,97964.53
2022-11-05T14:36:21.381Z,97962.19
2022-11-05T14:40:26.393Z,97957.94
2022-11-05T14:44:30.005Z,97959.66
2022-11-05T14:48:41.258Z,97963.44
2022-11-05T14:53:04.694Z,97964.84
2022-11-05T14:57:06.790Z,97965.09
2022-11-05T15:01:30.094Z,97966.69
2022-11-05T15:05:34.919Z,97971.78
2022-11-05T15:09:41.548Z,97974.84
2022-11-05T15:14:05.686Z,97986.91
2022-11-05T15:18:28.189Z,97981.44
2022-11-05T15:22:34.756Z,97979.97
2022-11-05T15:26:46.383Z,97986.84
2022-11-05T15:31:16.105Z,97998.84
2022-11-05T15:35:28.089Z,97996.06
2022-11-05T15:39:38.594Z,98000.31
2022-11-05T15:43:47.841Z,98002.78
2022-11-05T15:47:50.071Z,98009.69
2022-11-05T15:51:52.096Z,98006.69
2022-11-05T15:55:58.456Z,98005.84
2022-11-05T16:00:05.542Z,98019.38
2022-11-05T16:04:29.899Z,98019.16
2022-11-05T16:08:32.037Z,98032.59
2022-11-05T16:12:36.335Z,98035.22
2022-11-05T16:16:38.370Z,98039.13
2022-11-05T16:20:40.390Z,98048.59
2022-11-05T16:24:43.320Z,98055.44
2022-11-05T16:28:50.778Z,98053.75
2022-11-05T16:32:53.110Z,98051.19
2022-11-05T16:36:57.123Z,98061.47
2022-11-05T16:41:00.368Z,98072.53
2022-11-05T16:45:02.398Z,98076.09
2022-11-05T16:49:04.315Z,98076.09
2022-11-05T16:53:06.854Z,98071.84
2022-11-05T16:57:39.376Z,98079.88
2022-11-05T17:01:43.184Z,98087.69
2022-11-05T17:05:45.860Z,98088.41
2022-11-05T17:09:48.006Z,98087.91
2022-11-05T17:13:51.998Z,98095.63
2022-11-05T17:17:55.354Z,98088.19
2022-11-05T17:21:57.761Z,98087.72
2022-11-05T17:26:06.415Z,98092.81
2022-11-05T17:30:10.113Z,98097.03
2022-11-05T17:34:12.157Z,98089.38
2022-11-05T17:38:14.479Z,98099.75
2022-11-05T17:42:16.555Z,98094.50
2022-11-05T17:46:20.199Z,98100.16
2022-11-05T17:50:22.523Z,98108.44
2022-11-05T17:54:24.548Z,98105.88
2022-11-05T17:58:26.553Z,98115.31
2022-11-05T18:02:29.642Z,98112.38
2022-11-05T18:06:32.196Z,98119.06
2022-11-05T18:10:36.866Z,98121.19
2022-11-05T18:14:39.096Z,98126.19
2022-11-05T18:18:41.090Z,98134.47
2022-11-05T18:22:44.087Z,98133.19
2022-11-05T18:26:46.333Z,98137.59
2022-11-05T18:30:48.394Z,98146.00
2022-11-05T18:34:50.528Z,98148.47
2022-11-05T18:38:53.222Z,98146.38
2022-11-05T18:42:55.237Z,98148.84
2022-11-05T18:46:58.661Z,98149.38
2022-11-05T18:51:02.187Z,98153.63
2022-11-05T18:55:04.635Z,98156.84
2022-11-05T18:59:35.098Z,98146.44
2022-11-05T19:03:28.708Z,98147.22
2022-11-05T19:07:30.892Z,98155.72
2022-11-05T19:11:33.394Z,98154.31
2022-11-05T19:15:35.424Z,98165.34
2022-11-05T19:19:37.907Z,98170.44
2022-11-05T19:23:39.931Z,98182.97
2022-11-05T19:27:43.714Z,98189.38
2022-11-05T19:31:45.828Z,98193.34
2022-11-05T19:35:47.852Z,98197.84
2022-11-05T19:39:49.925Z,98207.41
2022-11-05T19:43:54.291Z,98212.38
2022-11-05T19:47:56.404Z,98219.19
2022-11-05T19:51:58.415Z,98213.50
2022-11-05T19:56:08.201Z,98215.09
2022-11-05T20:00:10.987Z,98222.41
2022-11-05T20:04:13.627Z,98232.69
2022-11-05T20:08:15.766Z,98231.81
2022-11-05T20:12:18.098Z,98240.53
2022-11-05T20:16:27.295Z,98249.22
2022-11-05T20:20:29.523Z,98252.88
2022-11-05T20:24:31.631Z,98261.59
2022-11-05T20:28:35.497Z,98267.81
2022-11-05T20:32:37.574Z,98280.44
2022-11-05T20:36:40.074Z,98284.34
2022-11-05T20:40:42.256Z,98295.56
2022-11-05T20:44:44.229Z,98292.13
2022-11-05T20:48:46.618Z,98294.31
2022-11-05T20:52:49.103Z,98307.19
2022-11-05T20:56:51.286Z,98312.56
2022-11-05T21:00:55.956Z,98316.00
2022-11-05T21:04:58.585Z,98302.75
2022-11-05T21:09:01.414Z,98323.72
2022-11-05T21:13:03.404Z,98302.81
2022-11-05T21:17:07.726Z,98315.38
2022-11-05T21:21:13.463Z,98321.75
2022-11-05T21:25:15.711Z,98313.13
2022-11-05T21:29:18.739Z,98333.25
2022-11-05T21:33:20.790Z,98325.56
2022-11-05T21:37:22.831Z,98336.28
2022-11-05T21:41:25.334Z,98321.50
2022-11-05T21:45:27.534Z,98337.06
2022-11-05T21:49:29.973Z,98327.47
2022-11-05T21:53:50.486Z,98323.97
2022-11-05T21:58:11.583Z,98333.81
2022-11-05T22:02:19.627Z,98339.84
2022-11-05T22:06:21.738Z,98332.47
2022-11-05T22:10:23.841Z,98330.19
2022-11-05T22:14:26.524Z,98325.41
2022-11-05T22:18:28.564Z,98336.78
2022-11-05T22:22:30.594Z,98326.53
2022-11-05T22:26:32.993Z,98336.84
2022-11-05T22:30:36.716Z,98326.41
2022-11-05T22:34:39.424Z,98332.84
2022-11-05T22:38:41.649Z,98322.75
2022-11-05T22:42:44.192Z,98326.25
2022-11-05T22:46:46.412Z,98321.13
2022-11-05T22:50:48.481Z,98328.03
2022-11-05T22:54:50.574Z,98328.50
2022-11-05T22:58:52.997Z,98324.94
2022-11-05T23:02:55.148Z,98325.94
2022-11-05T23:07:15.584Z,98328.75
2022-11-05T23:11:41.325Z,98329.19
2022-11-05T23:16:01.831Z,98329.31
2022-11-05T23:20:24.805Z,98320.13
2022-11-05T23:24:27.072Z,98333.00
2022-11-05T23:28:29.144Z,98329.06
2022-11-05T23:32:32.310Z,98339.44
2022-11-05T23:36:52.881Z,98330.97
2022-11-05T23:41:13.462Z,98345.16
2022-11-05T23:45:34.137Z,98345.25
2022-11-05T23:49:36.115Z,98343.81
2022-11-05T23:53:40.212Z,98345.59
2022-11-05T23:57:42.302Z,98349.50
